Blountstown, Florida
Current Conditions -  °F | °C
As of 12:53 PM on Monday 20 Oct 2014 (Local Time) from KMAI Reporting Station
Broken Clouds Broken Clouds  
Wind Chill: 77°   Ceiling: 3300
Heat Index: 79°   Visibility: 10mi
Dew Point: 63°   Wind: 6mph
Humidity: 62%   Direction: 210°SSW
Pressure: 30.01"   Gusts: NA
Location:  30.44°N, 85.05°W
Report Text: KMAI 201753Z AUTO 21005KT 10SM BKN033 25/17 A3001 RMK AO2 SLP162 60000 T02500172 10250 20106 58022 $
Loading
Personal Weather Stations






























Interactive Weather Map New forecast layout! Learn more

10-Day Weather Forecast

Advertisements
Track Severe Weather on mobile